createdAt,value
2023-04-14T00:02:41.960Z,9.50
2023-04-14T00:05:21.679Z,7.80
2023-04-14T00:08:07.751Z,9.00
2023-04-14T00:11:11.272Z,8.80
2023-04-14T00:13:47.478Z,9.60
2023-04-14T00:17:06.131Z,10.80
2023-04-14T00:19:41.232Z,12.80
2023-04-14T00:22:21.633Z,14.50
2023-04-14T00:24:52.022Z,12.00
2023-04-14T00:27:35.709Z,9.40
2023-04-14T00:30:15.331Z,9.40
2023-04-14T00:32:49.570Z,9.10
2023-04-14T00:35:24.238Z,10.40
2023-04-14T00:38:02.072Z,10.40
2023-04-14T00:40:32.046Z,11.00
2023-04-14T00:43:10.179Z,9.70
2023-04-14T00:46:11.000Z,10.50
2023-04-14T00:48:47.939Z,8.20
2023-04-14T00:51:29.846Z,9.50
2023-04-14T00:54:11.578Z,10.10
2023-04-14T00:57:17.445Z,14.10
2023-04-14T01:00:44.190Z,8.30
2023-04-14T01:03:24.665Z,11.70
2023-04-14T01:10:09.516Z,9.60
2023-04-14T01:13:17.641Z,9.80
2023-04-14T01:16:00.964Z,8.90
2023-04-14T01:18:55.189Z,10.80
2023-04-14T01:24:37.496Z,8.40
2023-04-14T01:28:20.723Z,9.30
2023-04-14T01:31:22.511Z,8.20
2023-04-14T01:34:01.567Z,8.60
2023-04-14T01:36:46.836Z,7.80
2023-04-14T01:39:28.024Z,8.60
2023-04-14T01:42:38.540Z,9.30
2023-04-14T01:45:19.872Z,9.80
2023-04-14T01:47:53.221Z,9.50
2023-04-14T01:50:23.963Z,9.30
2023-04-14T01:53:03.553Z,14.80
2023-04-14T01:55:46.773Z,9.10
2023-04-14T01:58:28.605Z,9.10
2023-04-14T02:01:03.073Z,9.80
2023-04-14T02:04:04.542Z,10.10
2023-04-14T02:07:03.390Z,6.60
2023-04-14T02:09:41.530Z,7.80
2023-04-14T02:12:19.926Z,7.50
2023-04-14T02:14:55.791Z,9.50
2023-04-14T02:17:31.736Z,8.00
2023-04-14T02:20:25.657Z,8.30
2023-04-14T02:23:45.711Z,10.50
2023-04-14T02:26:37.691Z,7.10
2023-04-14T02:29:33.224Z,7.10
2023-04-14T02:32:17.760Z,8.10
2023-04-14T02:35:13.282Z,7.50
2023-04-14T02:37:56.724Z,9.10
2023-04-14T02:40:34.249Z,6.60
2023-04-14T02:43:32.673Z,6.90
2023-04-14T02:46:05.490Z,6.60
2023-04-14T02:48:43.165Z,7.60
2023-04-14T02:51:45.266Z,7.00
2023-04-14T02:54:25.809Z,6.20
2023-04-14T03:01:03.546Z,6.30
2023-04-14T03:04:03.265Z,5.60
2023-04-14T03:06:35.358Z,7.10
2023-04-14T03:09:09.235Z,7.00
2023-04-14T03:11:47.531Z,6.70
2023-04-14T03:14:35.332Z,7.10
2023-04-14T03:17:08.564Z,7.30
2023-04-14T03:19:57.496Z,7.80
2023-04-14T03:22:36.045Z,7.70
2023-04-14T03:25:40.871Z,5.70
2023-04-14T03:28:22.250Z,7.30
2023-04-14T03:31:27.627Z,8.50
2023-04-14T03:34:00.370Z,8.40
2023-04-14T03:36:55.680Z,7.60
2023-04-14T03:40:00.860Z,8.10
2023-04-14T03:43:13.566Z,8.10
2023-04-14T03:46:52.477Z,8.50
2023-04-14T03:49:25.625Z,7.20
2023-04-14T03:52:05.940Z,6.20
2023-04-14T03:55:06.351Z,7.50
2023-04-14T03:58:02.891Z,6.20
2023-04-14T04:00:38.249Z,7.20
2023-04-14T04:03:17.615Z,6.90
2023-04-14T04:05:55.029Z,8.30
2023-04-14T04:08:39.428Z,7.00
2023-04-14T04:11:18.342Z,8.10
2023-04-14T04:13:53.491Z,6.40
2023-04-14T04:16:29.496Z,7.20
2023-04-14T04:19:07.759Z,6.80
2023-04-14T04:25:16.319Z,5.90
2023-04-14T04:28:18.255Z,6.10
2023-04-14T04:31:56.396Z,7.50
2023-04-14T04:35:28.481Z,6.60
2023-04-14T04:38:08.480Z,6.20
2023-04-14T04:41:31.648Z,7.40
2023-04-14T04:45:03.762Z,7.50
2023-04-14T04:48:00.728Z,6.00
2023-04-14T04:55:55.393Z,6.20
2023-04-14T04:58:34.936Z,5.70
2023-04-14T05:01:18.675Z,7.80
2023-04-14T05:04:02.687Z,6.20
2023-04-14T05:06:39.742Z,7.50
2023-04-14T05:09:35.635Z,6.70
2023-04-14T05:12:47.386Z,7.10
2023-04-14T05:15:36.104Z,7.30
2023-04-14T05:18:30.849Z,8.50
2023-04-14T05:21:06.843Z,8.50
2023-04-14T05:24:19.911Z,7.40
2023-04-14T05:27:13.192Z,8.40
2023-04-14T05:31:21.229Z,9.80
2023-04-14T05:34:35.426Z,6.90
2023-04-14T05:37:30.769Z,9.90
2023-04-14T05:40:34.816Z,8.50
2023-04-14T05:43:10.069Z,8.50
2023-04-14T05:45:43.424Z,6.60
2023-04-14T05:48:38.575Z,6.80
2023-04-14T05:55:24.196Z,7.30
2023-04-14T05:57:57.276Z,9.50
2023-04-14T06:01:10.963Z,8.90
2023-04-14T06:03:48.381Z,10.70
2023-04-14T06:06:32.023Z,7.50
2023-04-14T06:09:07.332Z,11.70
2023-04-14T06:11:49.431Z,6.90
2023-04-14T06:19:12.285Z,7.40
2023-04-14T06:22:56.579Z,9.30
2023-04-14T06:26:28.488Z,7.40
2023-04-14T06:29:21.839Z,7.30
2023-04-14T06:32:40.042Z,7.20
2023-04-14T06:35:31.879Z,9.10
2023-04-14T06:39:08.870Z,7.30
2023-04-14T06:41:56.287Z,8.10
2023-04-14T06:51:29.669Z,7.50
2023-04-14T06:54:58.706Z,7.60
2023-04-14T06:57:36.836Z,6.10
2023-04-14T07:00:40.007Z,7.80
2023-04-14T07:03:22.405Z,9.10
2023-04-14T07:06:54.689Z,9.00
2023-04-14T07:09:48.583Z,7.80
2023-04-14T07:18:05.061Z,6.50
2023-04-14T07:23:55.664Z,8.60
2023-04-14T07:27:15.220Z,7.30
2023-04-14T07:30:35.819Z,6.80
2023-04-14T07:33:23.589Z,7.00
2023-04-14T07:36:04.413Z,7.20
2023-04-14T07:39:35.037Z,8.20
2023-04-14T07:43:04.530Z,7.30
2023-04-14T07:45:47.224Z,8.50
2023-04-14T07:53:03.799Z,8.20
2023-04-14T07:56:24.464Z,9.10
2023-04-14T08:00:23.462Z,8.20
2023-04-14T08:03:56.938Z,9.40
2023-04-14T08:06:52.590Z,9.50
2023-04-14T08:27:43.622Z,11.50
2023-04-14T08:31:15.726Z,10.60
2023-04-14T08:33:56.859Z,10.10
2023-04-14T08:37:06.123Z,9.30
2023-04-14T08:39:46.603Z,9.00
2023-04-14T08:42:35.654Z,9.90
2023-04-14T08:49:49.856Z,10.90
2023-04-14T08:52:24.992Z,10.40
2023-04-14T09:02:00.185Z,11.10
2023-04-14T09:05:09.987Z,10.70
2023-04-14T09:08:58.819Z,9.70
2023-04-14T09:20:36.840Z,13.10
2023-04-14T09:23:32.224Z,11.00
2023-04-14T09:26:13.368Z,11.50
2023-04-14T09:29:51.246Z,12.10
2023-04-14T09:32:27.494Z,11.00
2023-04-14T09:35:09.927Z,12.50
2023-04-14T09:38:59.617Z,13.20
2023-04-14T09:41:35.053Z,11.90
2023-04-14T09:44:12.542Z,10.40
2023-04-14T09:47:10.691Z,13.00
2023-04-14T09:50:34.842Z,10.90
2023-04-14T09:57:07.061Z,15.10
2023-04-14T09:59:40.152Z,10.40
2023-04-14T10:02:56.937Z,11.80
2023-04-14T10:11:21.087Z,13.00
2023-04-14T10:14:46.296Z,11.00
2023-04-14T10:17:40.157Z,9.70
2023-04-14T10:21:28.703Z,9.70
2023-04-14T10:29:10.402Z,13.20
2023-04-14T10:32:05.432Z,11.50
2023-04-14T10:39:07.773Z,11.50
2023-04-14T10:46:53.867Z,12.70
2023-04-14T10:50:04.895Z,12.50
2023-04-14T10:57:55.137Z,9.40
2023-04-14T11:09:28.534Z,12.70
2023-04-14T11:12:27.591Z,12.40
2023-04-14T11:16:00.263Z,9.70
2023-04-14T11:19:18.424Z,11.70
2023-04-14T11:31:53.448Z,11.30
2023-04-14T11:40:20.835Z,10.10
2023-04-14T11:44:21.478Z,10.90
2023-04-14T12:06:22.987Z,13.80
2023-04-14T12:09:56.899Z,13.00
2023-04-14T12:13:45.021Z,10.50
2023-04-14T12:17:30.877Z,10.60
2023-04-14T12:20:58.399Z,11.60
2023-04-14T12:24:28.965Z,12.50
2023-04-14T12:28:08.317Z,16.80
2023-04-14T12:36:08.978Z,9.80
2023-04-14T12:39:15.278Z,12.10
2023-04-14T12:43:18.709Z,9.80
2023-04-14T12:46:55.595Z,10.70
2023-04-14T12:50:13.922Z,11.70
2023-04-14T12:53:32.629Z,13.00
2023-04-14T12:56:33.852Z,10.60
2023-04-14T13:02:05.766Z,9.10
2023-04-14T13:04:46.150Z,9.40
2023-04-14T13:16:46.652Z,11.50
2023-04-14T13:20:38.230Z,16.20
2023-04-14T13:23:23.789Z,9.50
2023-04-14T13:30:57.284Z,10.00
2023-04-14T13:33:49.935Z,11.50
2023-04-14T13:36:27.668Z,9.90
2023-04-14T13:39:29.831Z,9.00
2023-04-14T13:46:59.322Z,8.60
2023-04-14T13:59:26.926Z,8.80
2023-04-14T14:06:18.009Z,10.10
2023-04-14T14:09:13.262Z,9.30
2023-04-14T14:11:52.002Z,8.10
2023-04-14T14:14:56.155Z,11.10
2023-04-14T14:17:51.316Z,8.10
2023-04-14T14:20:35.064Z,9.30
2023-04-14T14:41:40.646Z,12.20
2023-04-14T14:44:15.184Z,9.80
2023-04-14T15:11:40.920Z,8.00
2023-04-14T15:14:39.678Z,7.70
2023-04-14T15:25:15.967Z,8.70
2023-04-14T15:28:14.168Z,8.40
2023-04-14T15:30:54.701Z,8.20
2023-04-14T15:33:52.212Z,7.80
2023-04-14T15:36:59.054Z,6.40
2023-04-14T15:40:05.512Z,8.00
2023-04-14T15:43:06.674Z,9.90
2023-04-14T15:45:49.472Z,7.10
2023-04-14T15:48:29.070Z,10.80
2023-04-14T15:51:41.966Z,6.40
2023-04-14T15:54:16.046Z,6.10
2023-04-14T15:56:58.948Z,8.90
2023-04-14T16:00:01.814Z,10.10
2023-04-14T16:02:46.681Z,6.50
2023-04-14T16:05:30.297Z,9.20
2023-04-14T16:08:55.875Z,6.60
2023-04-14T16:12:04.118Z,8.50
2023-04-14T16:15:49.944Z,6.90
2023-04-14T16:18:29.185Z,7.10
2023-04-14T16:21:12.081Z,7.60
2023-04-14T16:24:01.951Z,9.80
2023-04-14T16:31:37.769Z,7.00
2023-04-14T16:34:17.869Z,8.10
2023-04-14T16:37:33.202Z,6.90
2023-04-14T16:45:02.200Z,7.60
2023-04-14T16:52:59.628Z,6.30
2023-04-14T17:00:07.489Z,8.40
2023-04-14T17:04:08.177Z,6.20
2023-04-14T17:11:57.105Z,8.00
2023-04-14T17:14:32.217Z,7.40
2023-04-14T17:17:43.769Z,7.60
2023-04-14T17:24:32.951Z,7.40
2023-04-14T17:27:19.239Z,6.10
2023-04-14T17:29:58.788Z,10.40
2023-04-14T17:33:24.451Z,6.60
2023-04-14T17:36:26.705Z,8.30
2023-04-14T17:39:06.835Z,7.30
2023-04-14T17:42:01.600Z,8.10
2023-04-14T17:44:45.217Z,9.40
2023-04-14T17:51:14.999Z,8.50
2023-04-14T17:53:51.704Z,8.40
2023-04-14T17:57:31.248Z,6.80
2023-04-14T18:00:05.548Z,9.00
2023-04-14T18:02:56.163Z,7.50
2023-04-14T18:05:55.821Z,8.20
2023-04-14T18:08:38.180Z,6.40
2023-04-14T18:11:41.261Z,6.90
2023-04-14T18:14:22.506Z,7.70
2023-04-14T18:17:04.479Z,9.00
2023-04-14T18:20:25.337Z,8.10
2023-04-14T18:34:58.363Z,5.00
2023-04-14T18:39:12.750Z,12.70
2023-04-14T18:41:56.506Z,6.00
2023-04-14T18:44:54.588Z,4.50
2023-04-14T18:47:41.551Z,4.90
2023-04-14T18:50:30.545Z,4.80
2023-04-14T18:53:45.299Z,5.20
2023-04-14T18:56:49.027Z,4.80
2023-04-14T19:00:36.686Z,5.70
2023-04-14T19:08:25.303Z,6.50
2023-04-14T19:17:18.126Z,5.90
2023-04-14T19:20:41.355Z,5.40
2023-04-14T19:23:19.522Z,6.00
2023-04-14T23:01:45.505Z,4.00
